Time;durP1;ratioP1;P1;durP2;ratioP2;P2;SDS_P1;SDS_P2;PMS_P1;PMS_P2;Temp;Humidity;BMP_temperature;BMP_pressure;BME280_temperature;BME280_humidity;BME280_pressure;Samples;Min_cycle;Max_cycle;Signal;HPM_P1;HPM_P2
2022/01/27 00:00:48;;;;;;;14.57;7.40;;;;;;;2.72;100.00;100799.00;10497154;28;20230;-65
2022/01/27 00:05:54;;;;;;;13.70;8.57;;;;;;;2.61;100.00;100795.25;10497187;28;20232;-65
2022/01/27 00:11:02;;;;;;;14.53;8.50;;;;;;;2.60;100.00;100793.53;10496848;28;20240;-66
2022/01/27 00:16:16;;;;;;;13.20;7.87;;;;;;;2.54;100.00;100788.25;10497030;28;20228;-64
2022/01/27 00:21:22;;;;;;;12.13;7.07;;;;;;;2.41;100.00;100792.13;10496771;28;20315;-64
2022/01/27 00:26:27;;;;;;;12.87;7.93;;;;;;;2.33;100.00;100780.78;10496545;28;20220;-65
2022/01/27 00:31:30;;;;;;;13.07;6.77;;;;;;;2.17;100.00;100786.28;10496661;28;20220;-65
2022/01/27 00:36:34;;;;;;;14.53;7.90;;;;;;;2.10;100.00;100782.69;10496327;28;20755;-66
2022/01/27 00:41:38;;;;;;;15.43;8.17;;;;;;;2.11;100.00;100794.66;10498034;28;20538;-68
2022/01/27 00:46:42;;;;;;;15.13;8.50;;;;;;;2.09;100.00;100791.16;10533588;28;20551;-63
2022/01/27 00:51:46;;;;;;;16.80;8.87;;;;;;;2.05;100.00;100791.88;10545452;28;20219;-68
2022/01/27 00:56:56;;;;;;;17.13;9.70;;;;;;;2.25;100.00;100784.81;10545516;28;20225;-66
2022/01/27 01:02:11;;;;;;;14.87;7.87;;;;;;;2.29;100.00;100797.78;10545622;28;20223;-68
2022/01/27 01:07:15;;;;;;;11.77;7.23;;;;;;;2.24;100.00;100785.66;10545019;28;20657;-69
2022/01/27 01:17:57;;;;;;;35.27;16.23;;;;;;;2.15;100.00;100787.94;10544481;28;20695;-69
2022/01/27 01:34:12;;;;;;;17.83;7.87;;;;;;;2.33;100.00;100768.84;10493403;23;10001883;-66
2022/01/27 01:39:15;;;;;;;18.53;8.90;;;;;;;2.30;100.00;100779.00;9985663;29;20307;-66
2022/01/27 01:44:19;;;;;;;16.00;7.57;;;;;;;2.29;100.00;100771.28;9985263;29;20567;-70
2022/01/27 01:49:26;;;;;;;20.23;8.87;;;;;;;2.24;100.00;100768.56;9984994;29;20691;-66
2022/01/27 01:54:29;;;;;;;19.63;10.33;;;;;;;2.29;100.00;100767.03;9984144;29;20302;-66
2022/01/27 01:59:33;;;;;;;19.83;8.57;;;;;;;2.35;100.00;100767.22;9984646;29;20650;-66
2022/01/27 02:04:37;;;;;;;18.93;9.07;;;;;;;2.48;100.00;100775.25;9984479;29;20236;-67
2022/01/27 02:10:01;;;;;;;20.80;8.33;;;;;;;2.45;100.00;100763.19;9984386;29;20307;-65
2022/01/27 02:20:28;;;;;;;26.93;10.47;;;;;;;2.31;100.00;100760.25;9984478;29;20225;-66
2022/01/27 02:25:31;;;;;;;23.03;10.00;;;;;;;2.44;100.00;100755.47;9984096;29;20244;-68
2022/01/27 02:30:34;;;;;;;29.87;12.03;;;;;;;2.59;100.00;100748.25;9984194;29;20263;-65
2022/01/27 02:35:39;;;;;;;23.43;10.70;;;;;;;2.36;100.00;100740.75;9984144;29;20243;-67
2022/01/27 02:40:49;;;;;;;27.77;11.23;;;;;;;2.49;100.00;100738.53;9983647;29;20238;-67
2022/01/27 02:46:00;;;;;;;30.50;13.23;;;;;;;2.34;100.00;100729.63;9983284;29;20225;-67
2022/01/27 02:51:06;;;;;;;25.60;10.27;;;;;;;2.50;100.00;100724.94;9983650;29;20667;-67
2022/01/27 02:56:09;;;;;;;29.97;12.43;;;;;;;2.57;100.00;100721.72;9983387;29;20233;-66
2022/01/27 03:01:18;;;;;;;32.43;12.80;;;;;;;2.42;100.00;100732.38;9982855;29;20221;-64
2022/01/27 03:06:22;;;;;;;34.03;14.00;;;;;;;2.47;100.00;100714.59;9649764;29;10000858;-63
2022/01/27 03:11:36;;;;;;;30.87;13.23;;;;;;;2.31;100.00;100705.63;9987424;29;20233;-64
2022/01/27 03:16:39;;;;;;;32.83;12.27;;;;;;;2.45;100.00;100711.13;9986792;29;20232;-68
2022/01/27 03:21:44;;;;;;;29.13;10.73;;;;;;;2.50;100.00;100701.88;9986657;29;20714;-65
2022/01/27 03:26:47;;;;;;;31.53;12.63;;;;;;;2.53;100.00;100690.03;9986273;29;20247;-65
2022/01/27 03:31:51;;;;;;;32.27;14.53;;;;;;;2.59;100.00;100684.22;9986369;29;20225;-65
2022/01/27 03:36:55;;;;;;;36.80;13.30;;;;;;;2.33;100.00;100702.28;9986380;29;20694;-63
2022/01/27 03:42:00;;;;;;;27.37;11.27;;;;;;;2.46;100.00;100702.63;9986138;29;20217;-63
2022/01/27 03:47:04;;;;;;;28.60;11.00;;;;;;;2.36;100.00;100694.66;9986149;29;20232;-62
2022/01/27 03:52:09;;;;;;;36.63;14.27;;;;;;;2.49;100.00;100706.13;9985668;29;20221;-63
2022/01/27 03:57:12;;;;;;;30.67;13.37;;;;;;;2.38;100.00;100692.19;9986071;29;20237;-65
2022/01/27 04:02:16;;;;;;;30.17;12.00;;;;;;;2.33;100.00;100697.16;9985536;29;20572;-66
2022/01/27 04:07:21;;;;;;;31.47;11.80;;;;;;;2.38;100.00;100693.84;9985676;29;20300;-67
2022/01/27 04:12:24;;;;;;;30.73;13.30;;;;;;;2.32;100.00;100694.56;9985165;29;20563;-67
2022/01/27 04:17:28;;;;;;;35.53;13.67;;;;;;;2.30;100.00;100679.16;9988136;29;20547;-70
2022/01/27 04:22:32;;;;;;;26.33;12.30;;;;;;;2.30;100.00;100663.78;9992251;29;20224;-67
2022/01/27 04:27:38;;;;;;;35.07;12.73;;;;;;;2.25;100.00;100664.47;9992122;29;20660;-64
2022/01/27 04:32:49;;;;;;;35.90;12.43;;;;;;;2.38;100.00;100668.25;9991618;29;20255;-63
2022/01/27 04:38:03;;;;;;;24.67;11.03;;;;;;;2.37;100.00;100675.06;9991595;29;20229;-70
2022/01/27 04:43:14;;;;;;;25.43;9.97;;;;;;;2.40;100.00;100670.00;9991436;29;20239;-62
2022/01/27 04:48:20;;;;;;;28.93;11.13;;;;;;;2.48;100.00;100659.97;9991756;29;20668;-64
2022/01/27 04:53:31;;;;;;;31.40;12.83;;;;;;;2.47;100.00;100651.44;9990962;29;20225;-62
2022/01/27 04:58:55;;;;;;;26.83;11.20;;;;;;;2.56;100.00;100643.13;9990772;29;20543;-64
2022/01/27 05:04:03;;;;;;;30.33;12.23;;;;;;;2.54;100.00;100640.50;9990704;29;20658;-63
2022/01/27 05:09:07;;;;;;;24.37;10.43;;;;;;;2.56;100.00;100644.00;9990822;29;20224;-65
2022/01/27 05:14:15;;;;;;;33.63;14.03;;;;;;;2.58;100.00;100638.91;9990576;29;20232;-66
2022/01/27 05:19:19;;;;;;;24.93;9.60;;;;;;;2.58;100.00;100621.84;9990238;29;20228;-68
2022/01/27 05:24:24;;;;;;;25.07;9.43;;;;;;;2.49;100.00;100611.34;9990094;29;20727;-67
2022/01/27 05:29:27;;;;;;;27.27;10.03;;;;;;;2.54;100.00;100611.50;9989104;29;20233;-65
2022/01/27 05:34:30;;;;;;;26.50;11.07;;;;;;;2.59;100.00;100621.00;9989514;29;20280;-65
2022/01/27 05:39:35;;;;;;;29.83;11.17;;;;;;;2.54;100.00;100619.19;9989732;29;20232;-67
2022/01/27 05:44:38;;;;;;;27.37;10.23;;;;;;;2.68;100.00;100615.25;9989290;29;20245;-69
2022/01/27 05:49:41;;;;;;;26.43;10.30;;;;;;;2.76;100.00;100600.97;9989321;29;20225;-63
2022/01/27 05:54:46;;;;;;;25.37;11.40;;;;;;;2.54;100.00;100591.84;9989084;29;20691;-65
2022/01/27 05:59:49;;;;;;;38.07;12.73;;;;;;;2.73;100.00;100596.59;9989052;29;20228;-67
2022/01/27 06:04:52;;;;;;;28.80;10.63;;;;;;;2.58;100.00;100593.66;9988726;29;20243;-69
2022/01/27 06:09:58;;;;;;;26.03;11.33;;;;;;;2.63;100.00;100586.09;9988620;29;20225;-66
2022/01/27 06:15:01;;;;;;;31.13;12.97;;;;;;;2.70;100.00;100577.72;9988918;29;20704;-65
2022/01/27 06:20:05;;;;;;;28.47;11.50;;;;;;;2.77;100.00;100572.81;9988661;29;20304;-66
2022/01/27 06:25:12;;;;;;;29.23;12.27;;;;;;;2.78;100.00;100566.00;9988203;29;20224;-64
2022/01/27 06:30:15;;;;;;;30.13;11.83;;;;;;;2.77;100.00;100551.44;9988221;29;20679;-65
2022/01/27 06:35:18;;;;;;;25.00;10.40;;;;;;;2.58;100.00;100547.56;9987723;29;20759;-68
2022/01/27 06:40:23;;;;;;;26.60;11.43;;;;;;;2.54;100.00;100532.09;9987519;29;20303;-66
2022/01/27 06:45:26;;;;;;;29.77;10.80;;;;;;;2.59;100.00;100531.34;9987527;29;20240;-65
2022/01/27 06:50:31;;;;;;;30.80;12.17;;;;;;;2.74;100.00;100534.31;9987243;29;20308;-66
2022/01/27 06:55:37;;;;;;;30.60;11.27;;;;;;;2.70;100.00;100529.06;9987021;29;20228;-66
2022/01/27 07:00:40;;;;;;;31.20;14.03;;;;;;;2.52;100.00;100524.34;9987170;29;20225;-68
2022/01/27 07:05:44;;;;;;;28.40;11.60;;;;;;;2.61;100.00;100523.69;9983806;29;20264;-64
2022/01/27 07:10:48;;;;;;;28.73;12.57;;;;;;;2.59;100.00;100504.88;9651347;29;10000026;-65
2022/01/27 07:15:52;;;;;;;27.97;11.03;;;;;;;2.69;100.00;100519.66;9983527;29;20225;-67
2022/01/27 07:20:55;;;;;;;30.43;13.83;;;;;;;2.79;100.00;100508.78;9983693;29;20602;-64
2022/01/27 07:25:59;;;;;;;34.03;14.27;;;;;;;2.78;100.00;100510.47;9983783;29;20244;-65
2022/01/27 07:31:03;;;;;;;31.60;12.33;;;;;;;2.70;100.00;100513.69;9982786;29;20798;-67
2022/01/27 07:36:06;;;;;;;32.50;13.10;;;;;;;2.66;100.00;100512.72;9983716;29;20259;-66
2022/01/27 07:41:14;;;;;;;32.90;13.17;;;;;;;2.83;100.00;100515.72;9982144;29;20225;-64
2022/01/27 07:46:17;;;;;;;32.47;14.00;;;;;;;2.72;100.00;100510.34;9983025;29;20601;-67
2022/01/27 07:51:24;;;;;;;32.23;13.83;;;;;;;2.70;100.00;100518.81;9982277;29;20619;-66
2022/01/27 07:56:28;;;;;;;36.83;14.53;;;;;;;2.65;100.00;100499.91;9982495;29;20236;-63
2022/01/27 08:01:32;;;;;;;46.03;17.33;;;;;;;2.77;100.00;100474.56;9982925;29;20907;-65
2022/01/27 08:06:35;;;;;;;35.80;18.70;;;;;;;2.68;100.00;100482.03;9982270;29;20324;-67
2022/01/27 08:11:40;;;;;;;37.17;15.57;;;;;;;2.64;100.00;100468.28;9981701;29;20251;-63
2022/01/27 08:16:43;;;;;;;35.90;15.33;;;;;;;2.69;100.00;100469.28;9982128;29;20717;-67
2022/01/27 08:21:47;;;;;;;40.20;15.63;;;;;;;2.86;100.00;100460.28;9981714;29;20312;-63
2022/01/27 08:26:58;;;;;;;46.17;19.40;;;;;;;2.81;100.00;100445.63;9981672;29;20665;-65
2022/01/27 08:32:02;;;;;;;33.37;15.73;;;;;;;2.74;100.00;100434.38;9981270;29;20256;-64
2022/01/27 08:37:09;;;;;;;37.97;16.00;;;;;;;3.03;100.00;100429.88;9981614;29;20270;-62
2022/01/27 08:42:15;;;;;;;37.63;16.90;;;;;;;2.90;100.00;100430.44;9981266;29;20759;-64
2022/01/27 08:47:18;;;;;;;37.73;19.43;;;;;;;2.83;100.00;100415.78;9981713;29;20229;-68
2022/01/27 08:52:22;;;;;;;30.60;16.00;;;;;;;2.84;100.00;100390.19;9980750;29;20266;-67
2022/01/27 08:57:26;;;;;;;32.30;15.23;;;;;;;2.98;100.00;100401.59;9981384;29;20292;-68
2022/01/27 09:02:30;;;;;;;27.90;14.20;;;;;;;2.95;100.00;100409.19;9982450;29;20236;-63
2022/01/27 09:07:34;;;;;;;28.40;14.40;;;;;;;3.20;100.00;100400.31;9987264;29;20232;-64
2022/01/27 09:12:39;;;;;;;33.97;14.87;;;;;;;3.16;100.00;100393.38;9986874;29;20293;-66
2022/01/27 09:17:42;;;;;;;28.63;13.87;;;;;;;3.09;100.00;100396.69;9987166;29;20566;-62
2022/01/27 09:22:46;;;;;;;21.57;11.10;;;;;;;3.24;100.00;100372.22;9986712;29;20225;-65
2022/01/27 09:27:52;;;;;;;30.13;15.67;;;;;;;3.08;100.00;100379.56;9987438;29;20236;-64
2022/01/27 09:32:57;;;;;;;25.53;13.17;;;;;;;3.15;100.00;100372.03;9986396;29;20676;-67
2022/01/27 09:38:01;;;;;;;30.43;13.97;;;;;;;2.94;100.00;100361.34;9986362;29;20231;-65
2022/01/27 09:43:09;;;;;;;28.17;14.43;;;;;;;3.15;100.00;100358.31;9986188;29;20325;-67
2022/01/27 09:48:14;;;;;;;23.33;12.67;;;;;;;3.15;100.00;100346.38;9653516;29;10000670;-64
2022/01/27 09:53:18;;;;;;;29.93;13.70;;;;;;;3.09;100.00;100347.97;9988823;29;20245;-64
2022/01/27 09:58:22;;;;;;;24.93;13.30;;;;;;;3.27;100.00;100335.47;9987999;29;20300;-67
2022/01/27 10:03:28;;;;;;;24.07;13.30;;;;;;;3.34;100.00;100335.63;9985742;29;20714;-63
2022/01/27 10:08:32;;;;;;;28.57;12.93;;;;;;;3.30;100.00;100328.72;9983868;29;20225;-66
2022/01/27 10:13:40;;;;;;;28.13;13.73;;;;;;;3.17;100.00;100308.81;9987104;29;20307;-63
2022/01/27 10:18:44;;;;;;;26.43;12.37;;;;;;;3.45;100.00;100305.06;9987231;29;20232;-64
2022/01/27 10:23:51;;;;;;;26.70;12.37;;;;;;;3.42;100.00;100299.84;9985254;29;20636;-66
2022/01/27 10:29:02;;;;;;;23.33;11.57;;;;;;;3.37;100.00;100288.63;9985309;29;20563;-62
2022/01/27 10:34:07;;;;;;;26.53;14.17;;;;;;;3.55;100.00;100288.97;9984779;29;20240;-66
2022/01/27 10:39:13;;;;;;;20.13;10.63;;;;;;;3.34;100.00;100276.66;9984261;29;20338;-66
2022/01/27 10:44:18;;;;;;;21.47;11.33;;;;;;;3.44;100.00;100270.84;9970854;29;20300;-65
2022/01/27 10:49:30;;;;;;;22.23;11.93;;;;;;;3.52;100.00;100270.94;9946804;29;20241;-66
2022/01/27 10:54:38;;;;;;;23.50;11.47;;;;;;;3.66;100.00;100259.19;9979946;29;20220;-65
2022/01/27 10:59:44;;;;;;;19.13;9.97;;;;;;;3.60;100.00;100237.72;9984350;29;20308;-64
2022/01/27 11:04:47;;;;;;;20.57;10.50;;;;;;;3.61;100.00;100231.78;9983522;29;20235;-65
2022/01/27 11:09:52;;;;;;;18.33;10.23;;;;;;;3.53;100.00;100224.81;9982751;29;20216;-63
2022/01/27 11:14:56;;;;;;;19.50;8.77;;;;;;;3.70;100.00;100208.78;9983509;29;20679;-64
2022/01/27 11:20:22;;;;;;;20.23;11.20;;;;;;;3.79;100.00;100191.84;9983408;29;20563;-67
2022/01/27 11:31:07;;;;;;;16.17;9.43;;;;;;;3.53;100.00;100170.94;9983297;29;20249;-65
2022/01/27 11:36:13;;;;;;;12.47;7.00;;;;;;;3.71;100.00;100172.88;9982717;29;20248;-66
2022/01/27 11:41:36;;;;;;;18.33;9.07;;;;;;;3.67;100.00;100162.56;9983802;29;20239;-64
2022/01/27 11:46:41;;;;;;;14.83;7.90;;;;;;;3.63;100.00;100153.97;9982264;29;20233;-64
2022/01/27 11:52:19;;;;;;;16.43;8.27;;;;;;;3.48;100.00;100159.75;9982773;29;20674;-66
2022/01/27 11:57:43;;;;;;;15.83;7.73;;;;;;;3.43;100.00;100145.97;9982312;29;20580;-66
2022/01/27 12:03:14;;;;;;;13.23;7.60;;;;;;;3.50;100.00;100139.25;9982146;29;20316;-68
2022/01/27 12:08:25;;;;;;;14.40;7.97;;;;;;;3.71;100.00;100124.13;9976248;29;20850;-65
2022/01/27 12:13:57;;;;;;;12.60;6.17;;;;;;;3.74;100.00;100106.22;9981904;29;20229;-67
2022/01/27 12:19:03;;;;;;;15.53;7.87;;;;;;;3.76;100.00;100101.97;9981970;29;20221;-62
2022/01/27 12:24:25;;;;;;;13.03;6.23;;;;;;;3.76;100.00;100090.84;9982061;29;20225;-65
2022/01/27 12:29:34;;;;;;;15.33;5.67;;;;;;;3.65;100.00;100087.25;9982218;29;20240;-64
2022/01/27 12:34:47;;;;;;;13.20;6.73;;;;;;;3.68;100.00;100059.94;9980908;29;20261;-63
2022/01/27 12:39:52;;;;;;;14.00;6.30;;;;;;;3.72;100.00;100061.72;9987156;29;20225;-64
2022/01/27 12:44:58;;;;;;;10.47;5.20;;;;;;;3.52;100.00;100060.59;9987883;29;20743;-63
2022/01/27 12:50:10;;;;;;;9.20;4.77;;;;;;;3.51;100.00;100043.47;9988194;29;20747;-63
2022/01/27 12:55:15;;;;;;;10.47;5.63;;;;;;;3.43;100.00;100034.84;9987814;29;20357;-63
2022/01/27 13:00:21;;;;;;;15.70;6.93;;;;;;;3.27;100.00;100033.78;9988371;29;20322;-69
2022/01/27 13:05:33;;;;;;;10.67;5.27;;;;;;;3.55;100.00;100035.00;9987764;29;20243;-67
2022/01/27 13:10:36;;;;;;;10.93;4.60;;;;;;;3.29;100.00;100037.22;9987275;29;20256;-68
2022/01/27 13:15:40;;;;;;;11.20;4.83;;;;;;;3.21;100.00;100022.56;9986940;29;20239;-63
2022/01/27 13:20:50;;;;;;;11.57;5.30;;;;;;;2.78;100.00;100031.31;9987454;29;20311;-63
2022/01/27 13:25:59;;;;;;;8.03;3.50;;;;;;;2.89;100.00;100019.53;9986714;29;20635;-64
2022/01/27 13:31:05;;;;;;;10.77;4.93;;;;;;;2.82;100.00;100011.72;9986981;29;20224;-64
2022/01/27 13:36:17;;;;;;;9.67;5.30;;;;;;;2.58;100.00;100011.34;9986451;29;20244;-67
2022/01/27 13:41:22;;;;;;;9.83;5.60;;;;;;;2.71;100.00;100008.16;9986429;29;20281;-64
2022/01/27 13:46:36;;;;;;;11.53;5.33;;;;;;;2.58;100.00;99993.41;9985986;29;20285;-66
2022/01/27 13:51:52;;;;;;;10.13;4.83;;;;;;;2.55;100.00;99988.25;9652545;29;10000287;-64
2022/01/27 13:56:56;;;;;;;10.67;5.87;;;;;;;2.53;100.00;99988.25;9988402;29;20234;-64
2022/01/27 14:02:17;;;;;;;9.63;5.63;;;;;;;2.44;100.00;99977.84;9989160;29;20220;-69
2022/01/27 14:07:30;;;;;;;10.77;5.07;;;;;;;2.51;100.00;99969.41;9987467;29;20332;-61
2022/01/27 14:12:45;;;;;;;25.33;13.67;;;;;;;2.19;100.00;99965.50;9988872;29;20216;-65
2022/01/27 14:17:57;;;;;;;10.13;5.90;;;;;;;2.18;100.00;99951.81;9988237;29;20665;-65
2022/01/27 14:23:20;;;;;;;11.50;6.13;;;;;;;2.06;100.00;99943.06;9988654;29;20203;-66
2022/01/27 14:28:24;;;;;;;10.47;5.57;;;;;;;1.88;100.00;99943.59;10003949;29;20699;-72
2022/01/27 14:33:27;;;;;;;15.03;6.07;;;;;;;1.97;100.00;99933.53;9987961;29;20289;-68
2022/01/27 14:38:32;;;;;;;13.43;6.13;;;;;;;1.75;100.00;99939.13;9987666;29;20209;-69
2022/01/27 14:43:38;;;;;;;13.90;7.07;;;;;;;1.77;100.00;99923.81;9987734;29;20284;-67
2022/01/27 14:48:46;;;;;;;12.67;6.40;;;;;;;1.64;100.00;99912.47;9987218;29;20229;-67
2022/01/27 14:53:50;;;;;;;10.50;6.13;;;;;;;1.53;100.00;99924.22;9987886;29;20197;-69
2022/01/27 14:58:54;;;;;;;12.47;6.63;;;;;;;1.43;100.00;99912.13;9986823;29;20204;-66
2022/01/27 15:03:57;;;;;;;11.43;6.70;;;;;;;1.38;100.00;99913.69;9986867;29;20235;-65
2022/01/27 15:09:02;;;;;;;9.73;4.80;;;;;;;1.49;100.00;99904.53;9986854;29;20232;-69
2022/01/27 15:18:48;;;;;;;13.03;7.90;;;;;;;1.47;100.00;99906.19;9987158;29;20197;-69
2022/01/27 15:19:37;;;;;;;16.00;7.13;;;;;;;1.44;100.00;99898.47;9993143;29;20245;-69
2022/01/27 15:24:43;;;;;;;14.63;7.70;;;;;;;1.40;100.00;99891.56;10000773;29;20239;-68
2022/01/27 15:29:46;;;;;;;14.70;7.50;;;;;;;1.36;100.00;99887.25;9986453;29;20682;-69
2022/01/27 15:34:50;;;;;;;12.90;7.13;;;;;;;1.56;100.00;99883.38;9985817;29;20228;-68
2022/01/27 15:39:57;;;;;;;13.40;6.57;;;;;;;1.60;100.00;99871.50;9986098;29;20261;-68
2022/01/27 15:45:00;;;;;;;12.70;7.57;;;;;;;1.59;100.00;99865.50;9985439;29;20312;-67
2022/01/27 15:50:04;;;;;;;11.90;7.40;;;;;;;1.56;100.00;99865.47;9985539;29;20714;-66
2022/01/27 15:55:10;;;;;;;12.40;6.90;;;;;;;1.69;100.00;99869.09;9985818;29;20654;-67
2022/01/27 16:00:15;;;;;;;12.93;7.23;;;;;;;1.52;100.00;99875.63;9985548;29;20283;-66
2022/01/27 16:05:20;;;;;;;13.57;6.53;;;;;;;1.71;100.00;99850.38;9985563;29;20725;-66
2022/01/27 16:10:26;;;;;;;13.60;6.73;;;;;;;1.68;100.00;99857.13;9985057;29;20618;-68
2022/01/27 16:15:31;;;;;;;11.30;6.80;;;;;;;1.66;100.00;99859.66;9991512;29;20597;-66
2022/01/27 16:20:35;;;;;;;11.83;6.57;;;;;;;1.88;100.00;99856.63;9657179;29;10000423;-69
2022/01/27 16:25:40;;;;;;;24.85;12.90;;;;;;;1.87;100.00;99864.28;9989105;29;20439;-70
2022/01/27 16:30:44;;;;;;;12.33;6.57;;;;;;;1.90;100.00;99839.63;9988432;29;20264;-69
2022/01/27 16:35:48;;;;;;;11.33;6.27;;;;;;;1.95;100.00;99843.09;10003712;29;20683;-72
2022/01/27 16:40:52;;;;;;;9.83;5.77;;;;;;;1.88;100.00;99840.44;9989052;29;20345;-72
2022/01/27 16:45:56;;;;;;;11.43;6.07;;;;;;;1.92;100.00;99832.81;9988425;29;20220;-68
2022/01/27 16:50:59;;;;;;;10.73;6.03;;;;;;;2.17;100.00;99834.91;9988414;29;20612;-69
2022/01/27 16:56:07;;;;;;;10.63;5.50;;;;;;;2.23;100.00;99821.34;9988213;29;20683;-69
2022/01/27 17:01:11;;;;;;;9.53;4.60;;;;;;;2.18;100.00;99828.97;9988625;29;20229;-71
2022/01/27 17:06:15;;;;;;;10.60;5.17;;;;;;;2.20;100.00;99811.94;9987105;29;20567;-70
2022/01/27 17:11:19;;;;;;;11.70;5.00;;;;;;;2.29;100.00;99799.28;9986702;29;20271;-69
2022/01/27 17:16:23;;;;;;;14.50;6.10;;;;;;;2.24;100.00;99815.41;9986536;29;20239;-68
2022/01/27 17:21:26;;;;;;;11.97;7.10;;;;;;;2.27;100.00;99800.06;9987168;29;20229;-68
2022/01/27 17:26:31;;;;;;;14.50;7.80;;;;;;;2.35;100.00;99806.16;9984561;29;20555;-67
2022/01/27 17:31:34;;;;;;;15.77;7.23;;;;;;;2.40;100.00;99796.00;9986687;29;20239;-70
2022/01/27 17:36:38;;;;;;;12.77;7.17;;;;;;;2.41;100.00;99796.00;9986737;29;20236;-67
2022/01/27 17:41:43;;;;;;;13.90;7.90;;;;;;;2.48;100.00;99789.25;9986411;29;20225;-69
2022/01/27 17:46:48;;;;;;;11.63;6.43;;;;;;;2.62;100.00;99791.16;9986204;29;20232;-69
2022/01/27 17:51:52;;;;;;;14.67;8.27;;;;;;;2.48;100.00;99776.44;9986014;29;20713;-72
2022/01/27 17:56:58;;;;;;;12.33;7.27;;;;;;;2.42;100.00;99773.84;9985885;29;20231;-66
2022/01/27 18:02:02;;;;;;;13.30;7.97;;;;;;;2.57;100.00;99766.34;9985788;29;20731;-67
2022/01/27 18:07:06;;;;;;;13.50;8.23;;;;;;;2.62;100.00;99762.13;9985466;29;20300;-68
2022/01/27 18:12:12;;;;;;;17.90;9.43;;;;;;;2.71;100.00;99762.25;9653094;29;10000666;-67
2022/01/27 18:17:15;;;;;;;13.43;7.63;;;;;;;2.63;100.00;99753.59;9988634;29;20588;-70
2022/01/27 18:22:20;;;;;;;12.63;6.77;;;;;;;2.73;100.00;99763.09;9988341;29;20681;-68
2022/01/27 18:27:26;;;;;;;17.00;9.13;;;;;;;2.75;100.00;99746.03;9988116;29;20243;-69
2022/01/27 18:32:30;;;;;;;18.30;9.43;;;;;;;2.78;100.00;99736.69;9988088;29;20736;-68
2022/01/27 18:37:33;;;;;;;14.80;9.47;;;;;;;2.77;100.00;99719.59;9987560;29;20319;-68
2022/01/27 18:42:38;;;;;;;19.10;10.97;;;;;;;2.66;100.00;99717.78;9987731;29;20567;-70
2022/01/27 18:47:42;;;;;;;19.67;10.00;;;;;;;2.75;100.00;99700.78;9987578;29;20693;-67
2022/01/27 18:52:46;;;;;;;17.37;9.67;;;;;;;2.73;100.00;99711.84;9987822;29;20236;-68
2022/01/27 18:57:50;;;;;;;18.03;10.13;;;;;;;2.70;100.00;99709.28;9987384;29;20308;-68
2022/01/27 19:02:54;;;;;;;16.37;9.80;;;;;;;3.01;100.00;99701.03;9987070;29;20319;-71
2022/01/27 19:07:57;;;;;;;15.97;9.87;;;;;;;2.92;100.00;99695.81;9986826;29;20243;-69
2022/01/27 19:13:03;;;;;;;18.20;10.53;;;;;;;2.90;100.00;99702.66;9986368;29;20299;-65
2022/01/27 19:18:06;;;;;;;24.70;13.33;;;;;;;2.83;100.00;99700.88;9983448;29;20252;-67
2022/01/27 19:23:12;;;;;;;20.80;9.73;;;;;;;2.88;100.00;99704.34;9983050;29;20578;-68
2022/01/27 19:28:17;;;;;;;16.87;10.30;;;;;;;2.94;100.00;99696.69;9983459;29;20323;-68
2022/01/27 19:33:20;;;;;;;25.47;12.97;;;;;;;3.06;100.00;99697.69;9982968;29;20320;-66
2022/01/27 19:38:24;;;;;;;29.70;17.17;;;;;;;3.14;100.00;99687.50;9982957;29;20233;-67
2022/01/27 19:43:29;;;;;;;16.27;9.27;;;;;;;3.14;100.00;99662.72;9983223;29;20225;-69
2022/01/27 19:48:34;;;;;;;18.17;9.37;;;;;;;3.24;100.00;99664.53;9981962;29;20309;-67
2022/01/27 19:53:42;;;;;;;15.40;9.77;;;;;;;3.25;100.00;99650.84;9983227;29;20705;-69
2022/01/27 19:58:47;;;;;;;23.47;10.47;;;;;;;3.28;100.00;99655.13;9982851;29;20229;-66
2022/01/27 20:03:50;;;;;;;18.73;9.97;;;;;;;3.34;100.00;99634.66;9982508;29;20309;-66
2022/01/27 20:08:53;;;;;;;18.40;9.33;;;;;;;3.38;100.00;99628.72;9982422;29;20233;-68
2022/01/27 20:13:59;;;;;;;16.80;7.87;;;;;;;3.55;100.00;99629.69;9982162;29;20300;-67
2022/01/27 20:19:03;;;;;;;17.23;9.87;;;;;;;3.47;100.00;99626.19;9982173;29;20224;-66
2022/01/27 20:24:07;;;;;;;21.83;9.97;;;;;;;3.47;100.00;99628.75;9982282;29;20231;-68
2022/01/27 20:29:12;;;;;;;16.67;7.93;;;;;;;3.57;100.00;99630.56;9981962;29;20229;-65
2022/01/27 20:34:15;;;;;;;15.23;7.67;;;;;;;3.62;100.00;99620.31;9982118;29;20251;-67
2022/01/27 20:39:18;;;;;;;16.77;7.63;;;;;;;3.59;100.00;99610.03;9981885;29;20715;-66
2022/01/27 20:44:23;;;;;;;19.33;9.53;;;;;;;3.55;100.00;99601.47;9981765;29;20241;-67
2022/01/27 20:49:27;;;;;;;14.40;8.23;;;;;;;3.54;100.00;99592.91;9981487;29;20237;-67
2022/01/27 20:54:30;;;;;;;17.50;8.50;;;;;;;3.57;100.00;99589.50;9981574;29;20556;-67
2022/01/27 20:59:35;;;;;;;14.87;8.00;;;;;;;3.79;100.00;99596.47;9984160;29;20240;-66
2022/01/27 21:04:38;;;;;;;13.60;8.27;;;;;;;3.77;100.00;99577.63;9987980;29;20312;-68
2022/01/27 21:09:42;;;;;;;14.80;8.20;;;;;;;3.77;100.00;99576.75;9987547;29;20228;-66
2022/01/27 21:14:47;;;;;;;14.43;8.07;;;;;;;3.83;100.00;99554.53;9987334;29;20224;-67
2022/01/27 21:19:50;;;;;;;14.60;8.53;;;;;;;3.91;100.00;99558.00;9987492;29;20706;-65
2022/01/27 21:24:54;;;;;;;15.70;9.37;;;;;;;3.87;100.00;99537.44;9987387;29;20221;-67
2022/01/27 21:29:59;;;;;;;18.47;8.37;;;;;;;4.01;100.00;99546.06;9995547;29;20260;-66
2022/01/27 21:35:03;;;;;;;13.60;7.53;;;;;;;3.96;100.00;99548.63;10025042;29;20699;-68
2022/01/27 21:40:08;;;;;;;18.67;8.20;;;;;;;4.01;100.00;99534.09;10024628;29;20238;-68
2022/01/27 21:45:13;;;;;;;13.70;7.37;;;;;;;4.01;100.00;99531.50;10024447;29;20550;-68
2022/01/27 21:50:17;;;;;;;14.37;7.60;;;;;;;4.22;100.00;99505.88;10025130;29;20718;-66
2022/01/27 21:55:21;;;;;;;13.50;7.03;;;;;;;4.30;100.00;99501.59;10024090;29;20322;-69
2022/01/27 22:00:27;;;;;;;14.50;7.43;;;;;;;4.39;100.00;99503.31;10024449;29;20683;-72
2022/01/27 22:05:30;;;;;;;13.10;7.60;;;;;;;4.36;100.00;99499.06;10023942;29;20228;-70
2022/01/27 22:10:34;;;;;;;13.70;7.00;;;;;;;4.40;100.00;99489.66;10022788;29;20242;-69
2022/01/27 22:15:39;;;;;;;14.73;7.90;;;;;;;4.33;100.00;99478.50;10001476;29;20221;-70
2022/01/27 22:20:42;;;;;;;17.27;7.20;;;;;;;4.27;100.00;99485.34;9985374;29;20233;-69
2022/01/27 22:25:45;;;;;;;12.77;6.93;;;;;;;4.35;100.00;99478.47;9985289;29;20704;-69
2022/01/27 22:30:50;;;;;;;14.23;6.50;;;;;;;4.36;100.00;99475.94;9985246;29;20220;-69
2022/01/27 22:35:54;;;;;;;13.60;6.73;;;;;;;4.35;100.00;99463.06;9984716;29;20707;-67
2022/01/27 22:40:57;;;;;;;13.33;6.07;;;;;;;4.40;100.00;99456.25;9984885;29;20288;-68
2022/01/27 22:46:03;;;;;;;13.17;7.23;;;;;;;4.45;100.00;99454.53;9984852;29;20197;-70
2022/01/27 22:51:07;;;;;;;11.87;5.70;;;;;;;4.45;100.00;99450.22;9984764;29;20607;-69
2022/01/27 22:56:13;;;;;;;10.30;6.47;;;;;;;4.41;100.00;99457.97;9984516;29;20201;-67
2022/01/27 23:01:18;;;;;;;16.30;7.30;;;;;;;4.44;100.00;99443.41;9984510;29;20223;-70
2022/01/27 23:06:21;;;;;;;12.03;6.47;;;;;;;4.44;100.00;99435.69;9984298;29;20201;-67
2022/01/27 23:11:26;;;;;;;11.03;5.77;;;;;;;4.40;100.00;99436.53;9984433;29;20227;-67
2022/01/27 23:16:45;;;;;;;11.50;6.17;;;;;;;4.26;100.00;99411.75;9983739;29;20205;-67
2022/01/27 23:21:57;;;;;;;13.50;6.03;;;;;;;4.46;100.00;99425.41;9983643;29;20287;-70
2022/01/27 23:27:05;;;;;;;9.43;4.90;;;;;;;4.54;100.00;99415.97;9984090;29;20706;-69
2022/01/27 23:32:09;;;;;;;11.93;6.43;;;;;;;4.48;100.00;99414.28;9983204;29;20232;-69
2022/01/27 23:42:55;;;;;;;13.70;5.40;;;;;;;4.54;100.00;99390.28;9980144;29;20212;-67
2022/01/27 23:48:12;;;;;;;10.73;4.90;;;;;;;4.56;100.00;99374.03;9982962;29;20231;-68
2022/01/27 23:53:27;;;;;;;8.33;4.57;;;;;;;4.59;100.00;99381.72;9982849;29;20232;-67
2022/01/27 23:58:36;;;;;;;14.10;4.63;;;;;;;4.53;100.00;99358.63;9650347;29;10000259;-66
